Ocean Highway — H3IE — position and weather

sailwx.info

Track history (hours):
 
Tides and Currents Weather Stations Pressure Air Temp Water Temp Dewpoint Dewpoint Depression Visibility Wind Speed Wind Dir Waves Ship Positions

Ocean Highway

Last reported at 2016-May-28 09:16 UTC. Time now 2016-May-29 19:15 UTC.
Position N 33°57' E 134°55'.

Length 179.1 m; beam 32.2 m.

Type: Cargo ship. MMSI: 353951000.

Date/timePositionNaut miles runAvg speedWind from/ knotsBaromVisibWave heightAir tempDewpointWater temp
2016-May-28 09:16N 33°57' E 134°55'1116.2
2016-May-28 08:33N 34°09' E 134°56'1514.8
2016-May-28 07:33N 34°23' E 135°01'1616.3
2016-May-28 06:33N 34°34' E 135°15'8 6.0
2016-May-28 05:16N 34°42' E 135°17'0 0.0
2016-May-28 04:28N 34°42' E 135°17'0 0.0
2016-May-28 03:28N 34°42' E 135°17'0 0.0
2016-May-28 02:16N 34°42' E 135°17'0 0.0
2016-May-28 01:28N 34°42' E 135°17'0 0.0
2016-May-28 00:28N 34°42' E 135°17'0 0.0
2016-May-27 23:28N 34°42' E 135°17'0 0.3
2016-May-27 22:33N 34°42' E 135°17'1010.0
2016-May-27 21:33N 34°32' E 135°14'1616.1
2016-May-27 20:33N 34°20' E 135°01'1212.4
2016-May-27 19:33N 34°07' E 135°00'  
2016-May-25 07:09N 35°03' E 139°41'814.1
2016-May-25 06:33N 35°11' E 139°45'1111.0
2016-May-25 05:33N 35°21' E 139°42'6 6.0
2016-May-25 04:31N 35°27' E 139°41'0 0.0
2016-May-25 03:31N 35°27' E 139°41'0 0.0
2016-May-25 02:31N 35°27' E 139°41'0 0.0
2016-May-25 01:31N 35°27' E 139°41'0 0.0
2016-May-25 00:31N 35°27' E 139°41'0 0.0
2016-May-24 23:31N 35°27' E 139°41'0 0.0
2016-May-24 22:31N 35°27' E 139°41'2 1.8
2016-May-24 21:33N 35°26' E 139°42'1111.1
2016-May-24 20:33N 35°16' E 139°47'1010.5
2016-May-24 19:33N 35°05' E 139°45'10 9.5
2016-May-24 18:33N 34°56' E 139°43'1110.9
2016-May-24 17:33N 34°45' E 139°39'10 9.6
2016-May-24 16:33N 34°37' E 139°34'1716.1
2016-May-24 15:30N 34°35' E 139°14'1816.1
2016-May-24 14:24N 34°26' E 138°55'1816.3
2016-May-24 13:18N 34°23' E 138°34'  
Track history (hours):
 
Tides and Currents Weather Stations Pressure Air Temp Water Temp Dewpoint Dewpoint Depression Visibility Wind Speed Wind Dir Waves Ship Positions

Ocean Highway

Last reported at 2016-May-28 09:16 UTC. Time now 2016-May-29 19:15 UTC.
Position N 33°57' E 134°55'.

Length 179.1 m; beam 32.2 m.

Type: Cargo ship. MMSI: 353951000.

Date/timePositionNaut miles runAvg speedWind from/ knotsBaromVisibWave heightAir tempDewpointWater temp
2016-May-28 09:16N 33°57' E 134°55'1116.2
2016-May-28 08:33N 34°09' E 134°56'1514.8
2016-May-28 07:33N 34°23' E 135°01'1616.3
2016-May-28 06:33N 34°34' E 135°15'8 6.0
2016-May-28 05:16N 34°42' E 135°17'0 0.0
2016-May-28 04:28N 34°42' E 135°17'0 0.0
2016-May-28 03:28N 34°42' E 135°17'0 0.0
2016-May-28 02:16N 34°42' E 135°17'0 0.0
2016-May-28 01:28N 34°42' E 135°17'0 0.0
2016-May-28 00:28N 34°42' E 135°17'0 0.0
2016-May-27 23:28N 34°42' E 135°17'0 0.3
2016-May-27 22:33N 34°42' E 135°17'1010.0
2016-May-27 21:33N 34°32' E 135°14'1616.1
2016-May-27 20:33N 34°20' E 135°01'1212.4
2016-May-27 19:33N 34°07' E 135°00'  
2016-May-25 07:09N 35°03' E 139°41'814.1
2016-May-25 06:33N 35°11' E 139°45'1111.0
2016-May-25 05:33N 35°21' E 139°42'6 6.0
2016-May-25 04:31N 35°27' E 139°41'0 0.0
2016-May-25 03:31N 35°27' E 139°41'0 0.0
2016-May-25 02:31N 35°27' E 139°41'0 0.0
2016-May-25 01:31N 35°27' E 139°41'0 0.0
2016-May-25 00:31N 35°27' E 139°41'0 0.0
2016-May-24 23:31N 35°27' E 139°41'0 0.0
2016-May-24 22:31N 35°27' E 139°41'2 1.8
2016-May-24 21:33N 35°26' E 139°42'1111.1
2016-May-24 20:33N 35°16' E 139°47'1010.5
2016-May-24 19:33N 35°05' E 139°45'10 9.5
2016-May-24 18:33N 34°56' E 139°43'1110.9
2016-May-24 17:33N 34°45' E 139°39'10 9.6
2016-May-24 16:33N 34°37' E 139°34'1716.1
2016-May-24 15:30N 34°35' E 139°14'1816.1
2016-May-24 14:24N 34°26' E 138°55'1816.3
2016-May-24 13:18N 34°23' E 138°34'  

Dump ship's entire track history